sensor_id;sensor_type;location;lat;lon;timestamp;temperature;humidity
8994;DHT22;4532;50.886;4.700;2023-11-21T00:00:00;12.40;79.10
8994;DHT22;4532;50.886;4.700;2023-11-21T00:02:27;12.40;79.20
8994;DHT22;4532;50.886;4.700;2023-11-21T00:04:55;12.40;79.10
8994;DHT22;4532;50.886;4.700;2023-11-21T00:07:24;12.40;79.20
8994;DHT22;4532;50.886;4.700;2023-11-21T00:09:54;12.40;79.10
8994;DHT22;4532;50.886;4.700;2023-11-21T00:12:22;12.40;79.20
8994;DHT22;4532;50.886;4.700;2023-11-21T00:14:57;12.40;79.10
8994;DHT22;4532;50.886;4.700;2023-11-21T00:17:25;12.40;79.10
8994;DHT22;4532;50.886;4.700;2023-11-21T00:19:52;12.40;79.20
8994;DHT22;4532;50.886;4.700;2023-11-21T00:22:20;12.40;79.10
8994;DHT22;4532;50.886;4.700;2023-11-21T00:24:47;12.40;79.10
8994;DHT22;4532;50.886;4.700;2023-11-21T00:27:15;12.40;79.10
8994;DHT22;4532;50.886;4.700;2023-11-21T00:29:44;12.50;79.20
8994;DHT22;4532;50.886;4.700;2023-11-21T00:32:14;12.50;79.20
8994;DHT22;4532;50.886;4.700;2023-11-21T00:34:41;12.40;80.00
8994;DHT22;4532;50.886;4.700;2023-11-21T00:37:11;12.50;79.20
8994;DHT22;4532;50.886;4.700;2023-11-21T00:39:39;12.50;79.30
8994;DHT22;4532;50.886;4.700;2023-11-21T00:42:06;12.50;79.20
8994;DHT22;4532;50.886;4.700;2023-11-21T00:44:40;12.50;79.20
8994;DHT22;4532;50.886;4.700;2023-11-21T00:47:09;12.50;79.20
8994;DHT22;4532;50.886;4.700;2023-11-21T00:49:37;12.50;79.20
8994;DHT22;4532;50.886;4.700;2023-11-21T00:52:06;12.50;79.30
8994;DHT22;4532;50.886;4.700;2023-11-21T00:54:34;12.50;79.20
8994;DHT22;4532;50.886;4.700;2023-11-21T00:57:03;12.50;79.20
8994;DHT22;4532;50.886;4.700;2023-11-21T00:59:35;12.50;79.20
8994;DHT22;4532;50.886;4.700;2023-11-21T01:02:02;12.50;79.20
8994;DHT22;4532;50.886;4.700;2023-11-21T01:04:34;12.50;79.20
8994;DHT22;4532;50.886;4.700;2023-11-21T01:07:07;12.40;79.10
8994;DHT22;4532;50.886;4.700;2023-11-21T01:09:39;12.50;79.10
8994;DHT22;4532;50.886;4.700;2023-11-21T01:12:06;12.40;79.00
8994;DHT22;4532;50.886;4.700;2023-11-21T01:14:39;12.40;79.10
8994;DHT22;4532;50.886;4.700;2023-11-21T01:17:08;12.40;79.00
8994;DHT22;4532;50.886;4.700;2023-11-21T01:19:39;12.40;79.00
8994;DHT22;4532;50.886;4.700;2023-11-21T01:22:07;12.30;79.00
8994;DHT22;4532;50.886;4.700;2023-11-21T01:24:35;12.30;79.00
8994;DHT22;4532;50.886;4.700;2023-11-21T01:27:03;12.30;79.00
8994;DHT22;4532;50.886;4.700;2023-11-21T01:29:33;12.30;79.00
8994;DHT22;4532;50.886;4.700;2023-11-21T01:32:04;12.30;79.00
8994;DHT22;4532;50.886;4.700;2023-11-21T01:34:35;12.30;79.00
8994;DHT22;4532;50.886;4.700;2023-11-21T01:37:02;12.20;78.90
8994;DHT22;4532;50.886;4.700;2023-11-21T01:39:33;12.20;78.90
8994;DHT22;4532;50.886;4.700;2023-11-21T01:42:01;12.20;79.00
8994;DHT22;4532;50.886;4.700;2023-11-21T01:44:32;12.20;79.00
8994;DHT22;4532;50.886;4.700;2023-11-21T01:47:08;12.20;79.00
8994;DHT22;4532;50.886;4.700;2023-11-21T01:49:38;12.20;79.00
8994;DHT22;4532;50.886;4.700;2023-11-21T01:52:06;12.20;79.10
8994;DHT22;4532;50.886;4.700;2023-11-21T01:54:36;12.20;79.10
8994;DHT22;4532;50.886;4.700;2023-11-21T01:57:05;12.10;79.10
8994;DHT22;4532;50.886;4.700;2023-11-21T01:59:38;12.10;79.10
8994;DHT22;4532;50.886;4.700;2023-11-21T02:02:09;12.20;79.20
8994;DHT22;4532;50.886;4.700;2023-11-21T02:04:36;12.20;79.20
8994;DHT22;4532;50.886;4.700;2023-11-21T02:07:04;12.20;79.20
8994;DHT22;4532;50.886;4.700;2023-11-21T02:09:37;12.10;79.10
8994;DHT22;4532;50.886;4.700;2023-11-21T02:12:10;12.20;79.20
8994;DHT22;4532;50.886;4.700;2023-11-21T02:14:39;12.20;79.20
8994;DHT22;4532;50.886;4.700;2023-11-21T02:17:11;12.20;79.20
8994;DHT22;4532;50.886;4.700;2023-11-21T02:19:40;12.10;79.10
8994;DHT22;4532;50.886;4.700;2023-11-21T02:22:12;12.10;79.10
8994;DHT22;4532;50.886;4.700;2023-11-21T02:24:41;12.20;79.20
8994;DHT22;4532;50.886;4.700;2023-11-21T02:27:12;12.20;79.20
8994;DHT22;4532;50.886;4.700;2023-11-21T02:29:47;12.10;79.10
8994;DHT22;4532;50.886;4.700;2023-11-21T02:32:19;12.10;79.10
8994;DHT22;4532;50.886;4.700;2023-11-21T02:34:49;12.10;79.10
8994;DHT22;4532;50.886;4.700;2023-11-21T02:37:17;12.10;79.20
8994;DHT22;4532;50.886;4.700;2023-11-21T02:39:44;12.10;79.20
8994;DHT22;4532;50.886;4.700;2023-11-21T02:42:13;12.10;79.30
8994;DHT22;4532;50.886;4.700;2023-11-21T02:44:43;12.10;79.20
8994;DHT22;4532;50.886;4.700;2023-11-21T02:47:10;12.10;79.20
8994;DHT22;4532;50.886;4.700;2023-11-21T02:49:38;12.10;79.20
8994;DHT22;4532;50.886;4.700;2023-11-21T02:52:07;12.10;79.20
8994;DHT22;4532;50.886;4.700;2023-11-21T02:54:35;12.10;79.20
8994;DHT22;4532;50.886;4.700;2023-11-21T02:57:03;12.20;79.30
8994;DHT22;4532;50.886;4.700;2023-11-21T02:59:33;12.10;79.20
8994;DHT22;4532;50.886;4.700;2023-11-21T03:02:00;12.10;79.20
8994;DHT22;4532;50.886;4.700;2023-11-21T03:04:27;12.20;79.30
8994;DHT22;4532;50.886;4.700;2023-11-21T03:06:59;12.10;79.20
8994;DHT22;4532;50.886;4.700;2023-11-21T03:09:26;12.10;79.20
8994;DHT22;4532;50.886;4.700;2023-11-21T03:11:56;12.10;79.20
8994;DHT22;4532;50.886;4.700;2023-11-21T03:14:23;12.10;79.20
8994;DHT22;4532;50.886;4.700;2023-11-21T03:16:53;12.10;79.20
8994;DHT22;4532;50.886;4.700;2023-11-21T03:19:20;12.10;79.20
8994;DHT22;4532;50.886;4.700;2023-11-21T03:21:47;12.10;79.20
8994;DHT22;4532;50.886;4.700;2023-11-21T03:24:14;12.10;79.20
8994;DHT22;4532;50.886;4.700;2023-11-21T03:26:45;12.10;79.20
8994;DHT22;4532;50.886;4.700;2023-11-21T03:29:13;12.10;79.30
8994;DHT22;4532;50.886;4.700;2023-11-21T03:31:41;12.10;79.30
8994;DHT22;4532;50.886;4.700;2023-11-21T03:34:16;12.10;79.30
8994;DHT22;4532;50.886;4.700;2023-11-21T03:36:43;12.10;79.30
8994;DHT22;4532;50.886;4.700;2023-11-21T03:39:13;12.10;79.30
8994;DHT22;4532;50.886;4.700;2023-11-21T03:41:43;12.10;79.30
8994;DHT22;4532;50.886;4.700;2023-11-21T03:44:12;12.10;79.30
8994;DHT22;4532;50.886;4.700;2023-11-21T03:46:39;12.20;79.40
8994;DHT22;4532;50.886;4.700;2023-11-21T03:49:09;12.10;79.30
8994;DHT22;4532;50.886;4.700;2023-11-21T03:51:37;12.20;79.40
8994;DHT22;4532;50.886;4.700;2023-11-21T03:54:07;12.20;79.40
8994;DHT22;4532;50.886;4.700;2023-11-21T03:56:34;12.20;79.40
8994;DHT22;4532;50.886;4.700;2023-11-21T03:59:01;12.20;79.40
8994;DHT22;4532;50.886;4.700;2023-11-21T04:01:28;12.20;79.40
8994;DHT22;4532;50.886;4.700;2023-11-21T04:03:55;12.20;79.40
8994;DHT22;4532;50.886;4.700;2023-11-21T04:06:27;12.20;79.50
8994;DHT22;4532;50.886;4.700;2023-11-21T04:08:54;12.20;79.40
8994;DHT22;4532;50.886;4.700;2023-11-21T04:11:23;12.20;79.40
8994;DHT22;4532;50.886;4.700;2023-11-21T04:13:50;12.20;79.40
8994;DHT22;4532;50.886;4.700;2023-11-21T04:16:18;12.20;79.40
8994;DHT22;4532;50.886;4.700;2023-11-21T04:18:45;12.20;79.40
8994;DHT22;4532;50.886;4.700;2023-11-21T04:21:15;12.20;79.40
8994;DHT22;4532;50.886;4.700;2023-11-21T04:23:46;12.20;79.40
8994;DHT22;4532;50.886;4.700;2023-11-21T04:26:13;12.20;79.50
8994;DHT22;4532;50.886;4.700;2023-11-21T04:28:43;12.20;79.50
8994;DHT22;4532;50.886;4.700;2023-11-21T04:31:13;12.20;79.40
8994;DHT22;4532;50.886;4.700;2023-11-21T04:33:42;12.20;79.50
8994;DHT22;4532;50.886;4.700;2023-11-21T04:36:09;12.20;79.40
8994;DHT22;4532;50.886;4.700;2023-11-21T04:38:37;12.20;79.40
8994;DHT22;4532;50.886;4.700;2023-11-21T04:41:04;12.30;79.50
8994;DHT22;4532;50.886;4.700;2023-11-21T04:43:36;12.20;79.40
8994;DHT22;4532;50.886;4.700;2023-11-21T04:46:06;12.20;79.40
8994;DHT22;4532;50.886;4.700;2023-11-21T04:48:36;12.30;79.50
8994;DHT22;4532;50.886;4.700;2023-11-21T04:51:03;12.30;79.50
8994;DHT22;4532;50.886;4.700;2023-11-21T04:53:31;12.30;79.50
8994;DHT22;4532;50.886;4.700;2023-11-21T04:56:01;12.30;79.50
8994;DHT22;4532;50.886;4.700;2023-11-21T04:58:30;12.30;79.50
8994;DHT22;4532;50.886;4.700;2023-11-21T05:00:57;12.30;79.50
8994;DHT22;4532;50.886;4.700;2023-11-21T05:03:27;12.30;79.60
8994;DHT22;4532;50.886;4.700;2023-11-21T05:05:57;12.30;79.60
8994;DHT22;4532;50.886;4.700;2023-11-21T05:08:26;12.30;79.60
8994;DHT22;4532;50.886;4.700;2023-11-21T05:10:56;12.30;79.60
8994;DHT22;4532;50.886;4.700;2023-11-21T05:13:26;12.30;79.60
8994;DHT22;4532;50.886;4.700;2023-11-21T05:15:55;12.30;79.60
8994;DHT22;4532;50.886;4.700;2023-11-21T05:18:26;12.30;79.60
8994;DHT22;4532;50.886;4.700;2023-11-21T05:20:57;12.30;79.60
8994;DHT22;4532;50.886;4.700;2023-11-21T05:23:25;12.30;79.60
8994;DHT22;4532;50.886;4.700;2023-11-21T05:25:52;12.30;79.60
8994;DHT22;4532;50.886;4.700;2023-11-21T05:28:19;12.30;79.70
8994;DHT22;4532;50.886;4.700;2023-11-21T05:30:51;12.40;79.60
8994;DHT22;4532;50.886;4.700;2023-11-21T05:33:40;12.40;79.70
8994;DHT22;4532;50.886;4.700;2023-11-21T05:36:08;12.40;79.70
8994;DHT22;4532;50.886;4.700;2023-11-21T05:38:37;12.40;79.70
8994;DHT22;4532;50.886;4.700;2023-11-21T05:41:07;12.40;79.70
8994;DHT22;4532;50.886;4.700;2023-11-21T05:43:40;12.40;79.60
8994;DHT22;4532;50.886;4.700;2023-11-21T05:46:10;12.40;79.60
8994;DHT22;4532;50.886;4.700;2023-11-21T05:48:37;12.40;79.70
8994;DHT22;4532;50.886;4.700;2023-11-21T05:51:07;12.40;79.70
8994;DHT22;4532;50.886;4.700;2023-11-21T05:53:35;12.40;79.70
8994;DHT22;4532;50.886;4.700;2023-11-21T05:56:05;12.40;79.70
8994;DHT22;4532;50.886;4.700;2023-11-21T05:58:34;12.40;79.70
8994;DHT22;4532;50.886;4.700;2023-11-21T06:01:05;12.50;79.80
8994;DHT22;4532;50.886;4.700;2023-11-21T06:03:35;12.50;79.80
8994;DHT22;4532;50.886;4.700;2023-11-21T06:06:05;12.50;79.80
8994;DHT22;4532;50.886;4.700;2023-11-21T06:08:38;12.50;79.80
8994;DHT22;4532;50.886;4.700;2023-11-21T06:11:07;12.50;79.80
8994;DHT22;4532;50.886;4.700;2023-11-21T06:18:27;12.50;79.80
8994;DHT22;4532;50.886;4.700;2023-11-21T06:20:59;12.40;79.70
8994;DHT22;4532;50.886;4.700;2023-11-21T06:23:27;12.40;79.90
8994;DHT22;4532;50.886;4.700;2023-11-21T06:25:59;12.40;79.90
8994;DHT22;4532;50.886;4.700;2023-11-21T06:28:29;12.50;79.90
8994;DHT22;4532;50.886;4.700;2023-11-21T06:31:01;12.50;79.90
8994;DHT22;4532;50.886;4.700;2023-11-21T06:33:32;12.50;79.90
8994;DHT22;4532;50.886;4.700;2023-11-21T06:36:00;12.50;79.80
8994;DHT22;4532;50.886;4.700;2023-11-21T06:38:34;12.50;79.90
8994;DHT22;4532;50.886;4.700;2023-11-21T06:41:01;12.50;79.90
8994;DHT22;4532;50.886;4.700;2023-11-21T06:43:31;12.50;79.90
8994;DHT22;4532;50.886;4.700;2023-11-21T06:46:03;12.50;79.90
8994;DHT22;4532;50.886;4.700;2023-11-21T06:48:34;12.60;80.00
8994;DHT22;4532;50.886;4.700;2023-11-21T06:51:05;12.60;80.00
8994;DHT22;4532;50.886;4.700;2023-11-21T06:53:38;12.60;80.00
8994;DHT22;4532;50.886;4.700;2023-11-21T06:56:18;12.60;80.00
8994;DHT22;4532;50.886;4.700;2023-11-21T06:58:47;12.60;80.00
8994;DHT22;4532;50.886;4.700;2023-11-21T07:01:16;12.60;80.00
8994;DHT22;4532;50.886;4.700;2023-11-21T07:03:43;12.60;80.00
8994;DHT22;4532;50.886;4.700;2023-11-21T07:06:12;12.60;80.00
8994;DHT22;4532;50.886;4.700;2023-11-21T07:08:46;12.60;80.00
8994;DHT22;4532;50.886;4.700;2023-11-21T07:11:14;12.70;80.00
8994;DHT22;4532;50.886;4.700;2023-11-21T07:13:43;12.70;80.00
8994;DHT22;4532;50.886;4.700;2023-11-21T07:16:11;12.70;80.00
8994;DHT22;4532;50.886;4.700;2023-11-21T07:18:38;12.70;80.00
8994;DHT22;4532;50.886;4.700;2023-11-21T07:21:05;12.70;80.00
8994;DHT22;4532;50.886;4.700;2023-11-21T07:23:33;12.70;80.00
8994;DHT22;4532;50.886;4.700;2023-11-21T07:26:00;12.70;80.00
8994;DHT22;4532;50.886;4.700;2023-11-21T07:28:27;12.70;80.00
8994;DHT22;4532;50.886;4.700;2023-11-21T07:30:54;12.70;80.00
8994;DHT22;4532;50.886;4.700;2023-11-21T07:33:23;12.80;80.00
8994;DHT22;4532;50.886;4.700;2023-11-21T07:35:51;12.70;79.90
8994;DHT22;4532;50.886;4.700;2023-11-21T07:38:21;12.80;80.10
8994;DHT22;4532;50.886;4.700;2023-11-21T07:40:48;12.80;80.00
8994;DHT22;4532;50.886;4.700;2023-11-21T07:43:20;12.80;80.00
8994;DHT22;4532;50.886;4.700;2023-11-21T07:45:50;12.80;80.10
8994;DHT22;4532;50.886;4.700;2023-11-21T07:48:19;12.80;80.10
8994;DHT22;4532;50.886;4.700;2023-11-21T07:50:49;12.80;80.10
8994;DHT22;4532;50.886;4.700;2023-11-21T07:53:18;12.80;80.10
8994;DHT22;4532;50.886;4.700;2023-11-21T07:55:45;12.80;80.10
8994;DHT22;4532;50.886;4.700;2023-11-21T07:58:14;12.90;80.10
8994;DHT22;4532;50.886;4.700;2023-11-21T08:00:48;12.90;80.10
8994;DHT22;4532;50.886;4.700;2023-11-21T08:03:18;12.90;80.10
8994;DHT22;4532;50.886;4.700;2023-11-21T08:05:50;12.90;80.10
8994;DHT22;4532;50.886;4.700;2023-11-21T08:08:20;12.90;80.10
8994;DHT22;4532;50.886;4.700;2023-11-21T08:10:50;12.90;80.10
8994;DHT22;4532;50.886;4.700;2023-11-21T08:13:26;12.90;80.20
8994;DHT22;4532;50.886;4.700;2023-11-21T08:15:55;12.90;81.00
8994;DHT22;4532;50.886;4.700;2023-11-21T08:18:28;13.00;80.30
8994;DHT22;4532;50.886;4.700;2023-11-21T08:21:01;13.00;80.30
8994;DHT22;4532;50.886;4.700;2023-11-21T08:23:28;12.90;80.20
8994;DHT22;4532;50.886;4.700;2023-11-21T08:25:56;13.00;80.30
8994;DHT22;4532;50.886;4.700;2023-11-21T08:28:29;13.00;80.30
8994;DHT22;4532;50.886;4.700;2023-11-21T08:30:58;13.00;80.30
8994;DHT22;4532;50.886;4.700;2023-11-21T08:33:31;13.00;80.30
8994;DHT22;4532;50.886;4.700;2023-11-21T08:36:07;13.00;80.20
8994;DHT22;4532;50.886;4.700;2023-11-21T08:38:36;13.00;80.20
8994;DHT22;4532;50.886;4.700;2023-11-21T08:41:05;13.00;80.20
8994;DHT22;4532;50.886;4.700;2023-11-21T08:43:35;13.00;80.20
8994;DHT22;4532;50.886;4.700;2023-11-21T08:46:07;13.00;80.30
8994;DHT22;4532;50.886;4.700;2023-11-21T08:48:37;13.10;80.20
8994;DHT22;4532;50.886;4.700;2023-11-21T08:51:10;13.10;80.20
8994;DHT22;4532;50.886;4.700;2023-11-21T08:53:38;13.10;80.30
8994;DHT22;4532;50.886;4.700;2023-11-21T08:56:06;13.10;80.20
8994;DHT22;4532;50.886;4.700;2023-11-21T08:58:34;13.10;80.30
8994;DHT22;4532;50.886;4.700;2023-11-21T09:01:08;13.10;80.30
8994;DHT22;4532;50.886;4.700;2023-11-21T09:03:35;13.10;80.30
8994;DHT22;4532;50.886;4.700;2023-11-21T09:06:04;13.10;80.30
8994;DHT22;4532;50.886;4.700;2023-11-21T09:08:31;13.10;80.40
8994;DHT22;4532;50.886;4.700;2023-11-21T09:11:01;13.20;80.40
8994;DHT22;4532;50.886;4.700;2023-11-21T09:13:31;13.20;80.40
8994;DHT22;4532;50.886;4.700;2023-11-21T09:16:02;13.20;80.40
8994;DHT22;4532;50.886;4.700;2023-11-21T09:18:29;13.20;80.40
8994;DHT22;4532;50.886;4.700;2023-11-21T09:20:57;13.20;80.50
8994;DHT22;4532;50.886;4.700;2023-11-21T09:23:25;13.20;80.50
8994;DHT22;4532;50.886;4.700;2023-11-21T09:25:52;13.30;80.50
8994;DHT22;4532;50.886;4.700;2023-11-21T09:28:26;13.30;80.50
8994;DHT22;4532;50.886;4.700;2023-11-21T09:30:54;13.30;80.50
8994;DHT22;4532;50.886;4.700;2023-11-21T09:33:23;13.30;80.50
8994;DHT22;4532;50.886;4.700;2023-11-21T09:35:53;13.30;80.50
8994;DHT22;4532;50.886;4.700;2023-11-21T09:38:25;13.30;80.50
8994;DHT22;4532;50.886;4.700;2023-11-21T09:40:58;13.30;80.50
8994;DHT22;4532;50.886;4.700;2023-11-21T09:43:27;13.40;80.50
8994;DHT22;4532;50.886;4.700;2023-11-21T09:46:01;13.40;80.60
8994;DHT22;4532;50.886;4.700;2023-11-21T09:48:39;13.40;80.50
8994;DHT22;4532;50.886;4.700;2023-11-21T09:51:11;13.40;80.50
8994;DHT22;4532;50.886;4.700;2023-11-21T09:53:44;13.40;80.50
8994;DHT22;4532;50.886;4.700;2023-11-21T09:56:15;13.40;80.60
8994;DHT22;4532;50.886;4.700;2023-11-21T09:58:53;13.40;80.60
8994;DHT22;4532;50.886;4.700;2023-11-21T10:01:21;13.40;80.60
8994;DHT22;4532;50.886;4.700;2023-11-21T10:03:55;13.50;80.70
8994;DHT22;4532;50.886;4.700;2023-11-21T10:06:27;13.50;80.70
8994;DHT22;4532;50.886;4.700;2023-11-21T10:09:01;13.50;80.70
8994;DHT22;4532;50.886;4.700;2023-11-21T10:11:33;13.50;80.70
8994;DHT22;4532;50.886;4.700;2023-11-21T10:14:02;13.50;80.70
8994;DHT22;4532;50.886;4.700;2023-11-21T10:16:31;13.50;80.60
8994;DHT22;4532;50.886;4.700;2023-11-21T10:19:09;13.60;80.70
8994;DHT22;4532;50.886;4.700;2023-11-21T10:21:41;13.60;80.70
8994;DHT22;4532;50.886;4.700;2023-11-21T10:24:09;13.60;80.70
8994;DHT22;4532;50.886;4.700;2023-11-21T10:26:41;13.60;80.60
8994;DHT22;4532;50.886;4.700;2023-11-21T10:29:23;13.60;80.50
8994;DHT22;4532;50.886;4.700;2023-11-21T10:31:50;13.60;80.50
8994;DHT22;4532;50.886;4.700;2023-11-21T10:34:19;13.60;80.60
8994;DHT22;4532;50.886;4.700;2023-11-21T10:36:52;13.60;80.60
8994;DHT22;4532;50.886;4.700;2023-11-21T10:39:20;13.60;80.60
8994;DHT22;4532;50.886;4.700;2023-11-21T10:41:50;13.60;80.60
8994;DHT22;4532;50.886;4.700;2023-11-21T10:44:20;13.60;80.60
8994;DHT22;4532;50.886;4.700;2023-11-21T10:46:53;13.60;80.60
8994;DHT22;4532;50.886;4.700;2023-11-21T10:49:25;13.60;80.60
8994;DHT22;4532;50.886;4.700;2023-11-21T10:51:55;13.60;80.60
8994;DHT22;4532;50.886;4.700;2023-11-21T10:54:24;13.60;80.60
8994;DHT22;4532;50.886;4.700;2023-11-21T10:56:57;13.60;80.60
8994;DHT22;4532;50.886;4.700;2023-11-21T10:59:31;13.60;80.60
8994;DHT22;4532;50.886;4.700;2023-11-21T11:02:02;13.60;80.60
8994;DHT22;4532;50.886;4.700;2023-11-21T11:04:34;13.60;80.70
8994;DHT22;4532;50.886;4.700;2023-11-21T11:07:08;13.60;80.70
8994;DHT22;4532;50.886;4.700;2023-11-21T11:09:39;13.70;80.70
8994;DHT22;4532;50.886;4.700;2023-11-21T11:12:07;13.60;80.70
8994;DHT22;4532;50.886;4.700;2023-11-21T11:14:41;13.60;80.70
8994;DHT22;4532;50.886;4.700;2023-11-21T11:17:13;13.70;80.70
8994;DHT22;4532;50.886;4.700;2023-11-21T11:19:43;13.60;80.70
8994;DHT22;4532;50.886;4.700;2023-11-21T11:22:35;13.70;80.80
8994;DHT22;4532;50.886;4.700;2023-11-21T11:25:32;13.70;80.80
8994;DHT22;4532;50.886;4.700;2023-11-21T11:28:13;13.70;80.70
8994;DHT22;4532;50.886;4.700;2023-11-21T11:31:21;13.70;80.70
8994;DHT22;4532;50.886;4.700;2023-11-21T11:33:53;13.60;80.70
8994;DHT22;4532;50.886;4.700;2023-11-21T11:36:40;13.70;80.80
8994;DHT22;4532;50.886;4.700;2023-11-21T11:42:07;13.60;80.90
8994;DHT22;4532;50.886;4.700;2023-11-21T11:47:15;13.60;80.80
8994;DHT22;4532;50.886;4.700;2023-11-21T11:52:44;13.70;80.70
8994;DHT22;4532;50.886;4.700;2023-11-21T11:55:17;13.70;80.70
8994;DHT22;4532;50.886;4.700;2023-11-21T11:57:54;13.70;80.80
8994;DHT22;4532;50.886;4.700;2023-11-21T12:02:59;13.60;80.60
8994;DHT22;4532;50.886;4.700;2023-11-21T12:05:31;13.60;80.70
8994;DHT22;4532;50.886;4.700;2023-11-21T12:08:12;13.70;80.80
8994;DHT22;4532;50.886;4.700;2023-11-21T12:10:39;13.70;80.80
8994;DHT22;4532;50.886;4.700;2023-11-21T12:13:08;13.60;80.80
8994;DHT22;4532;50.886;4.700;2023-11-21T12:15:38;13.70;81.00
8994;DHT22;4532;50.886;4.700;2023-11-21T12:18:07;13.70;81.00
8994;DHT22;4532;50.886;4.700;2023-11-21T12:20:37;13.70;81.00
8994;DHT22;4532;50.886;4.700;2023-11-21T12:23:12;13.70;81.00
8994;DHT22;4532;50.886;4.700;2023-11-21T12:25:41;13.80;81.10
8994;DHT22;4532;50.886;4.700;2023-11-21T12:28:12;13.80;80.90
8994;DHT22;4532;50.886;4.700;2023-11-21T12:30:41;13.80;80.90
8994;DHT22;4532;50.886;4.700;2023-11-21T12:33:11;13.80;80.90
8994;DHT22;4532;50.886;4.700;2023-11-21T12:35:40;13.80;80.80
8994;DHT22;4532;50.886;4.700;2023-11-21T12:38:12;13.80;80.80
8994;DHT22;4532;50.886;4.700;2023-11-21T12:40:40;13.70;80.70
8994;DHT22;4532;50.886;4.700;2023-11-21T12:43:10;13.70;80.70
8994;DHT22;4532;50.886;4.700;2023-11-21T12:45:37;13.80;80.90
8994;DHT22;4532;50.886;4.700;2023-11-21T12:48:07;13.70;80.90
8994;DHT22;4532;50.886;4.700;2023-11-21T12:50:37;13.70;80.80
8994;DHT22;4532;50.886;4.700;2023-11-21T12:53:11;13.80;80.80
8994;DHT22;4532;50.886;4.700;2023-11-21T12:55:40;13.80;80.90
8994;DHT22;4532;50.886;4.700;2023-11-21T12:58:11;13.80;80.90
8994;DHT22;4532;50.886;4.700;2023-11-21T13:00:44;13.80;81.00
8994;DHT22;4532;50.886;4.700;2023-11-21T13:03:17;13.80;81.00
8994;DHT22;4532;50.886;4.700;2023-11-21T13:05:55;13.80;80.90
8994;DHT22;4532;50.886;4.700;2023-11-21T13:08:25;13.80;80.90
8994;DHT22;4532;50.886;4.700;2023-11-21T13:10:56;13.80;80.90
8994;DHT22;4532;50.886;4.700;2023-11-21T13:13:30;13.80;80.90
8994;DHT22;4532;50.886;4.700;2023-11-21T13:16:04;13.80;80.90
8994;DHT22;4532;50.886;4.700;2023-11-21T13:18:35;13.80;80.90
8994;DHT22;4532;50.886;4.700;2023-11-21T13:21:05;13.80;80.90
8994;DHT22;4532;50.886;4.700;2023-11-21T13:23:49;13.90;81.00
8994;DHT22;4532;50.886;4.700;2023-11-21T13:26:19;13.90;81.00
8994;DHT22;4532;50.886;4.700;2023-11-21T13:28:49;13.80;81.00
8994;DHT22;4532;50.886;4.700;2023-11-21T13:31:21;13.80;81.00
8994;DHT22;4532;50.886;4.700;2023-11-21T13:33:55;13.90;81.10
8994;DHT22;4532;50.886;4.700;2023-11-21T13:36:25;13.90;81.10
8994;DHT22;4532;50.886;4.700;2023-11-21T13:38:59;13.90;81.00
8994;DHT22;4532;50.886;4.700;2023-11-21T13:41:31;13.90;81.00
8994;DHT22;4532;50.886;4.700;2023-11-21T13:44:01;13.90;80.90
8994;DHT22;4532;50.886;4.700;2023-11-21T13:46:54;13.90;81.00
8994;DHT22;4532;50.886;4.700;2023-11-21T13:49:26;13.90;81.00
8994;DHT22;4532;50.886;4.700;2023-11-21T13:51:56;13.90;81.10
8994;DHT22;4532;50.886;4.700;2023-11-21T13:54:26;13.90;81.10
8994;DHT22;4532;50.886;4.700;2023-11-21T13:56:53;13.90;81.00
8994;DHT22;4532;50.886;4.700;2023-11-21T13:59:22;13.90;80.90
8994;DHT22;4532;50.886;4.700;2023-11-21T14:01:57;14.00;81.00
8994;DHT22;4532;50.886;4.700;2023-11-21T14:04:30;14.00;81.80
8994;DHT22;4532;50.886;4.700;2023-11-21T14:06:59;14.00;81.00
8994;DHT22;4532;50.886;4.700;2023-11-21T14:09:37;14.00;80.90
8994;DHT22;4532;50.886;4.700;2023-11-21T14:12:14;13.90;80.90
8994;DHT22;4532;50.886;4.700;2023-11-21T14:14:42;13.90;81.00
8994;DHT22;4532;50.886;4.700;2023-11-21T14:17:13;14.00;81.10
8994;DHT22;4532;50.886;4.700;2023-11-21T14:19:40;13.90;81.00
8994;DHT22;4532;50.886;4.700;2023-11-21T14:22:16;13.90;81.00
8994;DHT22;4532;50.886;4.700;2023-11-21T14:24:48;14.00;81.00
8994;DHT22;4532;50.886;4.700;2023-11-21T14:27:17;13.90;81.00
8994;DHT22;4532;50.886;4.700;2023-11-21T14:29:44;13.90;81.00
8994;DHT22;4532;50.886;4.700;2023-11-21T14:32:14;14.00;81.10
8994;DHT22;4532;50.886;4.700;2023-11-21T14:34:43;14.00;81.20
8994;DHT22;4532;50.886;4.700;2023-11-21T14:37:16;14.00;81.20
8994;DHT22;4532;50.886;4.700;2023-11-21T14:39:46;14.00;81.10
8994;DHT22;4532;50.886;4.700;2023-11-21T14:42:19;14.00;81.00
8994;DHT22;4532;50.886;4.700;2023-11-21T14:44:54;14.00;80.90
8994;DHT22;4532;50.886;4.700;2023-11-21T14:47:29;14.00;80.90
8994;DHT22;4532;50.886;4.700;2023-11-21T14:49:56;13.90;80.70
8994;DHT22;4532;50.886;4.700;2023-11-21T14:52:29;13.90;80.70
8994;DHT22;4532;50.886;4.700;2023-11-21T14:55:04;13.90;80.80
8994;DHT22;4532;50.886;4.700;2023-11-21T14:57:50;13.80;80.70
8994;DHT22;4532;50.886;4.700;2023-11-21T15:00:21;13.80;80.80
8994;DHT22;4532;50.886;4.700;2023-11-21T15:03:03;13.80;80.80
8994;DHT22;4532;50.886;4.700;2023-11-21T15:05:31;13.80;80.80
8994;DHT22;4532;50.886;4.700;2023-11-21T15:08:02;13.70;80.70
8994;DHT22;4532;50.886;4.700;2023-11-21T15:10:50;13.70;80.80
8994;DHT22;4532;50.886;4.700;2023-11-21T15:13:23;13.70;80.80
8994;DHT22;4532;50.886;4.700;2023-11-21T15:15:53;13.70;80.80
8994;DHT22;4532;50.886;4.700;2023-11-21T15:18:23;13.70;80.80
8994;DHT22;4532;50.886;4.700;2023-11-21T15:20:54;13.60;80.70
8994;DHT22;4532;50.886;4.700;2023-11-21T15:23:24;13.60;80.70
8994;DHT22;4532;50.886;4.700;2023-11-21T15:25:51;13.60;80.80
8994;DHT22;4532;50.886;4.700;2023-11-21T15:28:19;13.60;80.90
8994;DHT22;4532;50.886;4.700;2023-11-21T15:30:49;13.50;80.80
8994;DHT22;4532;50.886;4.700;2023-11-21T15:33:23;13.50;80.90
8994;DHT22;4532;50.886;4.700;2023-11-21T15:35:50;13.50;80.80
8994;DHT22;4532;50.886;4.700;2023-11-21T15:38:18;13.50;80.90
8994;DHT22;4532;50.886;4.700;2023-11-21T15:40:45;13.40;80.90
8994;DHT22;4532;50.886;4.700;2023-11-21T15:43:13;13.50;80.90
8994;DHT22;4532;50.886;4.700;2023-11-21T15:45:42;13.50;81.00
8994;DHT22;4532;50.886;4.700;2023-11-21T15:48:09;13.40;81.00
8994;DHT22;4532;50.886;4.700;2023-11-21T15:50:39;13.40;80.90
8994;DHT22;4532;50.886;4.700;2023-11-21T15:53:06;13.40;81.00
8994;DHT22;4532;50.886;4.700;2023-11-21T15:55:36;13.40;81.00
8994;DHT22;4532;50.886;4.700;2023-11-21T15:58:09;13.40;80.90
8994;DHT22;4532;50.886;4.700;2023-11-21T16:00:39;13.40;81.00
8994;DHT22;4532;50.886;4.700;2023-11-21T16:03:09;13.40;81.00
8994;DHT22;4532;50.886;4.700;2023-11-21T16:05:39;13.40;81.00
8994;DHT22;4532;50.886;4.700;2023-11-21T16:08:09;13.40;81.10
8994;DHT22;4532;50.886;4.700;2023-11-21T16:10:37;13.40;81.20
8994;DHT22;4532;50.886;4.700;2023-11-21T16:13:04;13.40;81.10
8994;DHT22;4532;50.886;4.700;2023-11-21T16:15:31;13.50;81.20
8994;DHT22;4532;50.886;4.700;2023-11-21T16:18:00;13.50;81.10
8994;DHT22;4532;50.886;4.700;2023-11-21T16:20:33;13.50;81.10
8994;DHT22;4532;50.886;4.700;2023-11-21T16:23:00;13.40;80.90
8994;DHT22;4532;50.886;4.700;2023-11-21T16:25:28;13.40;80.90
8994;DHT22;4532;50.886;4.700;2023-11-21T16:27:58;13.40;80.90
8994;DHT22;4532;50.886;4.700;2023-11-21T16:30:31;13.40;80.90
8994;DHT22;4532;50.886;4.700;2023-11-21T16:33:01;13.40;81.00
8994;DHT22;4532;50.886;4.700;2023-11-21T16:35:31;13.40;80.90
8994;DHT22;4532;50.886;4.700;2023-11-21T16:38:00;13.30;80.80